createdAt,value
2022-11-11T00:01:24.691Z,94.00
2022-11-11T00:04:59.166Z,94.31
2022-11-11T00:08:20.712Z,94.07
2022-11-11T00:11:54.308Z,93.92
2022-11-11T00:15:09.740Z,94.54
2022-11-11T00:18:41.669Z,94.93
2022-11-11T00:22:14.014Z,96.04
2022-11-11T00:25:30.958Z,96.58
2022-11-11T00:28:51.633Z,97.69
2022-11-11T00:35:33.751Z,98.73
2022-11-11T00:38:52.415Z,99.30
2022-11-11T00:42:13.938Z,100.00
2022-11-11T00:45:41.375Z,100.00
2022-11-11T00:48:58.631Z,100.00
2022-11-11T00:52:04.668Z,100.00
2022-11-11T00:55:26.653Z,100.00
2022-11-11T00:58:35.334Z,100.00
2022-11-11T01:02:01.552Z,100.00
2022-11-11T01:05:12.892Z,100.00
2022-11-11T01:08:38.599Z,100.00
2022-11-11T01:11:49.215Z,100.00
2022-11-11T01:15:01.916Z,100.00
2022-11-11T01:18:31.753Z,100.00
2022-11-11T01:21:51.758Z,100.00
2022-11-11T01:25:07.267Z,100.00
2022-11-11T01:28:32.362Z,100.00
2022-11-11T01:31:48.341Z,100.00
2022-11-11T01:35:02.585Z,100.00
2022-11-11T01:38:22.677Z,100.00
2022-11-11T01:41:32.025Z,100.00
2022-11-11T01:45:26.711Z,100.00
2022-11-11T01:48:51.221Z,100.00
2022-11-11T01:52:32.783Z,100.00
2022-11-11T01:56:16.586Z,100.00
2022-11-11T01:59:31.994Z,100.00
2022-11-11T02:07:04.681Z,100.00
2022-11-11T02:10:11.522Z,100.00
2022-11-11T02:17:26.863Z,100.00
2022-11-11T02:20:44.487Z,100.00
2022-11-11T02:24:44.462Z,100.00
2022-11-11T02:28:06.657Z,100.00
2022-11-11T02:31:19.451Z,100.00
2022-11-11T02:34:38.888Z,100.00
2022-11-11T02:37:54.754Z,100.00
2022-11-11T02:41:02.716Z,100.00
2022-11-11T02:44:42.498Z,100.00
2022-11-11T02:47:48.432Z,100.00
2022-11-11T02:51:06.709Z,100.00
2022-11-11T02:54:46.936Z,100.00
2022-11-11T02:57:58.164Z,100.00
2022-11-11T03:01:08.822Z,100.00
2022-11-11T03:04:31.121Z,100.00
2022-11-11T03:07:49.398Z,100.00
2022-11-11T03:11:06.826Z,100.00
2022-11-11T03:14:34.626Z,100.00
2022-11-11T03:17:46.860Z,100.00
2022-11-11T03:21:01.150Z,100.00
2022-11-11T03:24:30.630Z,100.00
2022-11-11T03:27:44.645Z,100.00
2022-11-11T03:31:08.583Z,100.00
2022-11-11T03:34:29.135Z,100.00
2022-11-11T03:37:51.637Z,100.00
2022-11-11T03:40:59.435Z,100.00
2022-11-11T03:44:32.645Z,100.00
2022-11-11T03:47:46.595Z,100.00
2022-11-11T03:50:55.706Z,100.00
2022-11-11T03:54:35.061Z,100.00
2022-11-11T03:57:56.658Z,100.00
2022-11-11T04:01:01.227Z,100.00
2022-11-11T04:04:35.725Z,100.00
2022-11-11T04:07:37.457Z,100.00
2022-11-11T04:10:55.752Z,100.00
2022-11-11T04:14:39.714Z,100.00
2022-11-11T04:17:55.448Z,100.00
2022-11-11T04:21:12.567Z,100.00
2022-11-11T04:24:36.397Z,100.00
2022-11-11T04:27:38.517Z,100.00
2022-11-11T04:30:53.620Z,100.00
2022-11-11T04:34:33.347Z,100.00
2022-11-11T04:37:57.697Z,100.00
2022-11-11T04:41:02.510Z,100.00
2022-11-11T04:44:29.626Z,100.00
2022-11-11T04:47:37.691Z,100.00
2022-11-11T04:50:51.713Z,100.00
2022-11-11T04:54:35.804Z,100.00
2022-11-11T04:57:47.074Z,100.00
2022-11-11T05:01:04.701Z,100.00
2022-11-11T05:04:28.715Z,100.00
2022-11-11T05:07:46.667Z,100.00
2022-11-11T05:10:48.379Z,100.00
2022-11-11T05:14:48.056Z,100.00
2022-11-11T05:17:53.906Z,100.00
2022-11-11T05:21:24.717Z,100.00
2022-11-11T05:24:31.181Z,100.00
2022-11-11T05:27:50.494Z,100.00
2022-11-11T05:31:02.582Z,100.00
2022-11-11T05:34:40.771Z,100.00
2022-11-11T05:37:47.820Z,100.00
2022-11-11T05:41:09.972Z,100.00
2022-11-11T05:44:58.716Z,100.00
2022-11-11T05:48:16.627Z,100.00
2022-11-11T05:51:44.803Z,100.00
2022-11-11T05:55:02.486Z,100.00
2022-11-11T06:17:43.774Z,100.00
2022-11-11T06:21:36.774Z,100.00
2022-11-11T06:28:08.240Z,100.00
2022-11-11T06:34:59.729Z,100.00
2022-11-11T06:38:09.339Z,100.00
2022-11-11T06:45:38.946Z,100.00
2022-11-11T06:49:01.729Z,100.00
2022-11-11T06:52:19.799Z,100.00
2022-11-11T06:56:30.682Z,100.00
2022-11-11T07:07:24.885Z,100.00
2022-11-11T07:10:40.552Z,100.00
2022-11-11T07:14:54.898Z,100.00
2022-11-11T07:18:49.022Z,100.00
2022-11-11T07:38:05.358Z,100.00
2022-11-11T07:48:55.261Z,98.93
2022-11-11T08:08:21.462Z,93.68
2022-11-11T08:15:24.472Z,91.78
2022-11-11T08:26:48.427Z,89.31
2022-11-11T08:38:17.954Z,87.03
2022-11-11T08:41:28.703Z,87.08
2022-11-11T08:45:09.414Z,86.73
2022-11-11T09:41:33.975Z,84.05
2022-11-11T10:06:00.430Z,81.33
2022-11-11T10:09:42.722Z,80.59
2022-11-11T12:07:18.311Z,84.00
2022-11-11T12:30:38.309Z,80.09
2022-11-11T12:34:57.365Z,80.50
2022-11-11T12:38:47.683Z,80.03
2022-11-11T12:51:11.867Z,78.22
2022-11-11T12:55:35.109Z,73.88
2022-11-11T12:59:42.470Z,71.08
2022-11-11T13:15:41.058Z,68.50
2022-11-11T14:57:05.108Z,80.21
2022-11-11T15:08:02.936Z,81.62
2022-11-11T15:11:40.731Z,82.08
2022-11-11T15:15:04.011Z,83.00
2022-11-11T15:18:39.862Z,82.98
2022-11-11T15:21:53.503Z,83.73
2022-11-11T15:25:41.194Z,83.74
2022-11-11T15:29:04.140Z,84.26
2022-11-11T15:36:22.747Z,84.92
2022-11-11T15:40:31.845Z,85.71
2022-11-11T15:43:41.922Z,86.31
2022-11-11T15:47:00.824Z,87.17
2022-11-11T15:50:03.324Z,87.15
2022-11-11T15:53:20.154Z,87.31
2022-11-11T16:12:21.877Z,92.05
2022-11-11T16:22:42.874Z,94.38
2022-11-11T19:25:28.014Z,100.00
2022-11-11T20:57:39.925Z,100.00
2022-11-11T21:34:19.917Z,100.00
2022-11-11T21:38:26.229Z,100.00
2022-11-11T21:46:08.939Z,100.00
2022-11-11T21:54:02.493Z,100.00
2022-11-11T21:57:36.062Z,100.00
2022-11-11T22:05:15.998Z,100.00
2022-11-11T22:17:03.245Z,100.00
2022-11-11T22:24:39.971Z,100.00
2022-11-11T22:28:14.920Z,100.00
2022-11-11T22:32:28.746Z,100.00
2022-11-11T22:44:31.107Z,100.00
2022-11-11T22:59:50.903Z,100.00
2022-11-11T23:25:45.972Z,100.00
2022-11-11T23:29:42.270Z,100.00
2022-11-11T23:33:21.412Z,100.00
2022-11-11T23:36:55.926Z,100.00
2022-11-11T23:40:18.088Z,100.00
2022-11-11T23:43:36.955Z,100.00
2022-11-11T23:47:25.459Z,100.00
2022-11-11T23:54:53.266Z,100.00
2022-11-11T23:58:36.673Z,100.00
